Terminal Aerodrome Forecast
Issued by NWS Wilmington, NC

Home | Current Version | Previous Version | Text Only | Print | Product List | Glossary On
Versions: 1 2 3 4 5 6 7 8 9 10 11 12 13 14 15
000
FTUS42 KILM 010200 AAA
TAFMYR
TAF AMD
KMYR 010218Z 0102/0124 08014KT P6SM VCTS SCT025CB BKN070
      TEMPO 0104/0108 VRB20KT 3SM SHRA BKN020
     FM010900 07007KT 6SM -SHRA SCT025 BKN060
     FM011700 12012KT P6SM VCTS SCT025 BKN040CB
      AMD LTD TO CLD VIS AND WIND 0104/0111=

USA.gov is the U.S. government's official web portal to all federal, state and local government web resources and services.